x

Tanner Bank - 121nm West Of San Diego, Ca (46047) Wave Buoy

4:50 - Mon 26th Jan 2015 All times are PST. -8 hours from GMT.

  • Sig Wave height 6.9ft
  • Swell Direction
  • Peak Period 15s
  • Average Period 11s
  • Wind
    4mph, 7mph gusts
  • Sea Temp 62°f
  • Air Temp 64°f
  • Sea Pressure 1014.3mb
  • Tanner Bank - 121nm West Of San Diego, Ca
  • Tanner Bank - 121nm West Of San Diego, Ca

More Historic Weather Station data

Upgrade to MSW Pro to gain access to the past 30 days of data for over 8000 Wavebouys and Weather Stations around the globe.

Join Pro

Comparision Forecast

View Surf forecast
   
lun. 01/26 4:50 7ft 15s 11s 4 7 mph 1014.3mb 62f 64f
3:50 7ft 15s 11s 7
mph
1014.5mb 62f 64f
2:50 6ft 15s 11s 4 7 mph 1015mb 62f 63f
1:50 7.5ft 14s 11s 4 7 mph 1015.4mb 62f 63f
12:50 7ft 15s 11s  -  2 mph 1015.8mb 62f 63f
dim. 01/25 11:50 7ft 15s 11s 4 7 mph 1016mb 62f 63f
10:50 8ft 15s 12s 2 4 mph 1016.8mb 62f 64f
9:50 7ft 15s 11s 2 4 mph 1016.4mb 62f 64f
8:50 7ft 15s 11s 2 4 mph 1016mb 62f 64f
7:50 8ft 15s 11s 2 4 mph 1016mb 62f 64f
6:50 8ft 15s 11s 4 7 mph 1015.6mb 63f 64f
5:50 7.5ft 15s 11s  -  2 mph 1014.8mb 63f 64f
4:50 9ft 15s 11s  -  4 mph 1014.9mb 63f 65f
3:50 9ft 16s 11s 4 7 mph 1015mb 63f 64f
2:50 8ft 15s 11s 2 4 mph 1014.5mb 63f 65f
1:50 8ft 16s 11s 2 7 mph 1014.2mb 63f 66f
12:50 8ft 15s 11s 4 7 mph 1014.7mb 63f 66f
11:50 9ft 16s 12s 4 7 mph 1015.6mb 63f 65f
10:50 8ft 15s 11s 4
mph
1016.9mb 62f 64f
9:50 8.5ft 16s 11s 4 7 mph 1017mb 62f 64f
8:50 7ft 15s 10s 9
mph
1016.5mb 62f 63f
7:50 9.5ft 15s 11s 4 7 mph 1015.8mb 61f 64f
6:50 8ft 15s 10s 2 4 mph 1016.1mb 61f 64f
5:50 9ft 16s 11s 7 9 mph 1015.9mb 62f 63f
4:50 9.5ft 16s 11s 7 9 mph 1015.6mb 62f 63f
3:50 8.5ft 16s 11s 7 9 mph 1015.9mb 62f 64f
2:50 8.5ft 16s 11s 9 11 mph 1016.1mb 62f 64f
1:50 9ft 16s 11s 7
mph
1016.1mb 62f 63f
12:50 9ft 16s 11s 7 9 mph 1016.3mb 62f 63f
sam. 01/24 11:50 8.5ft 16s 11s 9 11 mph 1016.5mb 62f 63f
10:50 8.5ft 16s 11s 9 11 mph 1016.6mb 62f 63f
9:50 10ft 17s 12s 9 11 mph 1016.5mb 62f 63f
8:50 10ft 16s 11s 7 9 mph 1016.1mb 62f 63f
7:50 10ft 16s 11s 7 9 mph 1015.6mb 62f 63f
6:50 10ft 17s 11s 4 7 mph 1015.5mb 62f 67f
5:50 10.5ft 16s 11s 7 9 mph 1015.1mb 62f 64f
4:50  -   -   -  7 9 mph 1015.1mb 62f 65f
3:50 11ft 17s 11s 7
mph
1015.6mb 62f 65f
2:50 11ft 17s 11s 7 9 mph 1015.5mb 62f 65f
1:50 10.5ft 17s 10s 9 11 mph 1015.5mb 62f 65f
12:50 10ft 17s 11s 11 16 mph 1015.8mb 62f 66f
11:50 9.5ft 16s 11s 9 11 mph 1016.8mb 62f 65f
10:50 10ft 17s 12s 4
mph
1018mb 62f 64f
9:50 9.5ft 17s 11s 4 7 mph 1018.1mb 62f 64f
8:50 10ft 17s 12s 7 9 mph 1017.8mb 62f 64f
7:50 11ft 17s 12s 11 13 mph 1018mb 62f 65f
6:50 8ft 17s 10s 11 13 mph 1017.7mb 62f 64f
5:50 10ft 19s 11s 9 11 mph 1017.6mb 62f 64f
4:50 8.5ft 19s 10s 11 18 mph 1017.3mb 62f 64f
3:50 8.5ft 19s 10s 13 18 mph 1017.6mb 62f 63f
2:50 9ft 19s 11s 13 18 mph 1018.1mb 62f 63f
1:50 8ft 19s 11s 16 18 mph 1018.8mb 62f 62f
12:50 7ft 19s 10s 13 16 mph 1019.1mb 62f 62f
ven. 01/23 11:50 8ft 19s 11s 11 13 mph 1019.8mb 62f 63f
10:50 6ft 19s 9s 11 16 mph 1020.4mb 62f 62f
9:50 9ft 19s 13s 11 13 mph 1020.9mb 62f 62f
8:50 7ft 19s 11s 11 13 mph 1020.9mb 62f 62f
7:50 5.5ft 19s 10s 13 16 mph 1020.8mb 62f 62f
6:50 6ft 21s 10s 9
mph
1021mb 63f 62f
5:50 6ft 21s 10s 7
mph
1020.7mb 63f 62f
4:50 5ft 21s 9s 7 9 mph 1020.4mb 63f 62f
3:50 6ft 21s 9s 9
mph
1020.7mb 63f 63f
2:50 5ft 15s 9s 9 11 mph 1020.9mb 63f 63f
1:50 5ft 21s 9s 7 9 mph 1021.2mb 63f 63f
12:50 5.5ft 21s 9s 9 11 mph 1021.8mb 63f 62f
11:50 5.5ft 21s 9s 7 9 mph 1022.8mb 63f 62f
10:50 4.5ft 21s 9s 11 13 mph 1023.6mb 63f 63f
9:50 4.5ft 21s 9s 9 11 mph 1023.4mb 63f 63f
8:50 4.5ft 16s 9s 7
mph
1023.4mb 62f 62f
7:50 4.5ft 16s 9s 7 9 mph 1023.2mb 62f 62f
6:50 5ft 16s 9s 7 9 mph 1023.4mb 62f 62f
5:50 4.5ft 16s 9s 7
mph
1023mb 62f 61f
4:50 5ft 16s 9s 7
mph
1022.8mb 62f 61f
3:50 4.5ft 16s 8s 4 7 mph 1023.1mb 62f 61f
2:50 5ft 16s 8s 7
mph
1023.1mb 62f 61f
1:50 4.5ft 16s 8s 7
mph
1023.2mb 62f 61f
12:50 4.5ft 11s 8s 4 7 mph 1022.9mb 62f 61f
jeu. 01/22 11:50 4.5ft 11s 8s 7 9 mph 1023.4mb 62f 61f
10:50 4.5ft 12s 8s 4
mph
1023.7mb 62f 61f
9:50 4.5ft 12s 8s  -  mph 1023.7mb 62f 62f
8:50 5ft 12s 8s 2
mph
1023.9mb 63f 62f
7:50 4.5ft 11s 7s 4
mph
1023.7mb 63f 62f
6:50 5ft 12s 8s 2
mph
1023.3mb 63f 62f
5:50 5ft 11s 7s 4
mph
1023.3mb 63f 63f
4:50 5ft 12s 7s 7
mph
1022.9mb 63f 63f
3:50 5.5ft 11s 7s 4
mph
1022.2mb 63f 64f
2:50 5.5ft 12s 7s 2 4 mph 1021.7mb 63f 63f
1:50 6ft 12s 7s 4
mph
1021.2mb 63f 63f